Time;durP1;ratioP1;P1;durP2;ratioP2;P2;SDS_P1;SDS_P2;PMS_P1;PMS_P2;Temp;Humidity;BMP_temperature;BMP_pressure;BME280_temperature;BME280_humidity;BME280_pressure;Samples;Min_cycle;Max_cycle;Signal;HPM_P1;HPM_P2
2023/09/24 00:01:46;;;;;;;10.07;9.87;;;9.40;99.90;;;;;;5091118;28;20472;-67
2023/09/24 00:04:13;;;;;;;10.00;9.80;;;9.30;99.90;;;;;;5084511;28;20468;-68
2023/09/24 00:06:39;;;;;;;10.70;10.50;;;9.20;99.90;;;;;;5082723;28;20473;-68
2023/09/24 00:09:10;;;;;;;10.40;10.20;;;9.10;99.90;;;;;;5084851;28;20493;-67
2023/09/24 00:11:37;;;;;;;10.60;10.40;;;9.10;99.90;;;;;;5081656;28;20819;-67
2023/09/24 00:14:04;;;;;;;10.23;10.03;;;9.10;99.90;;;;;;5086172;28;20450;-66
2023/09/24 00:16:31;;;;;;;10.47;10.27;;;9.10;99.90;;;;;;5084999;28;20463;-67
2023/09/24 00:18:58;;;;;;;10.30;10.10;;;9.00;99.90;;;;;;5085252;28;20517;-68
2023/09/24 00:21:25;;;;;;;10.57;10.37;;;9.00;99.90;;;;;;5084955;28;20813;-68
2023/09/24 00:23:53;;;;;;;11.30;11.00;;;8.90;99.90;;;;;;5087003;28;20462;-68
2023/09/24 00:26:22;;;;;;;11.00;10.73;;;9.00;99.90;;;;;;5084401;28;20977;-68
2023/09/24 00:28:49;;;;;;;10.70;10.50;;;9.00;99.90;;;;;;5082690;28;20908;-67
2023/09/24 00:31:17;;;;;;;10.80;10.60;;;8.90;99.90;;;;;;5088274;28;20561;-67
2023/09/24 00:33:44;;;;;;;11.00;10.70;;;8.80;99.90;;;;;;5077354;28;21012;-67
2023/09/24 00:36:11;;;;;;;10.67;10.47;;;8.80;99.90;;;;;;5083172;28;20469;-68
2023/09/24 00:38:39;;;;;;;10.80;10.57;;;8.80;99.90;;;;;;5083669;28;20462;-67
2023/09/24 00:41:06;;;;;;;10.43;10.23;;;8.80;99.90;;;;;;5078672;28;20472;-68
2023/09/24 00:43:36;;;;;;;10.60;10.40;;;8.80;99.90;;;;;;5079720;28;20457;-67
2023/09/24 00:46:05;;;;;;;11.13;10.83;;;8.80;99.90;;;;;;5083865;28;20458;-67
2023/09/24 00:48:32;;;;;;;10.93;10.70;;;8.90;99.90;;;;;;5075384;28;20565;-67
2023/09/24 00:51:00;;;;;;;10.90;10.70;;;9.00;99.90;;;;;;5071334;28;20986;-68
2023/09/24 00:53:28;;;;;;;10.50;10.30;;;9.00;99.90;;;;;;5090594;28;20462;-67
2023/09/24 00:55:56;;;;;;;10.20;10.00;;;9.00;99.90;;;;;;5088972;28;20461;-67
2023/09/24 00:58:25;;;;;;;10.40;10.20;;;9.00;99.90;;;;;;5075214;28;20501;-67
2023/09/24 01:00:56;;;;;;;9.27;9.07;;;9.00;99.90;;;;;;5090796;28;20553;-68
2023/09/24 01:03:23;;;;;;;9.63;9.43;;;9.00;99.90;;;;;;5074025;28;20469;-67
2023/09/24 01:05:51;;;;;;;10.47;10.27;;;8.90;99.90;;;;;;5086308;28;20466;-68
2023/09/24 01:08:19;;;;;;;10.20;10.00;;;8.70;99.90;;;;;;5090596;28;20831;-67
2023/09/24 01:10:47;;;;;;;10.50;10.30;;;8.60;99.90;;;;;;5077918;28;20867;-68
2023/09/24 01:13:19;;;;;;;10.67;10.47;;;8.50;99.90;;;;;;5081730;28;20861;-67
2023/09/24 01:15:49;;;;;;;10.37;10.17;;;8.50;99.90;;;;;;5082370;28;20535;-66
2023/09/24 01:18:18;;;;;;;10.70;10.50;;;8.40;99.90;;;;;;5086550;28;20492;-67
2023/09/24 01:20:45;;;;;;;10.27;10.07;;;8.40;99.90;;;;;;5088218;28;20462;-67
2023/09/24 01:23:16;;;;;;;10.93;10.67;;;8.40;99.90;;;;;;5078272;28;20553;-68
2023/09/24 01:25:45;;;;;;;10.67;10.47;;;8.30;99.90;;;;;;5090308;28;20443;-68
2023/09/24 01:28:12;;;;;;;10.30;10.10;;;8.20;99.90;;;;;;5077191;28;21253;-68
2023/09/24 01:30:39;;;;;;;10.53;10.33;;;8.20;99.90;;;;;;5084056;28;20848;-68
2023/09/24 01:33:07;;;;;;;10.60;10.40;;;8.20;99.90;;;;;;5082211;28;20956;-68
2023/09/24 01:35:35;;;;;;;11.40;11.10;;;8.20;99.90;;;;;;5089962;28;20485;-68
2023/09/24 01:38:06;;;;;;;11.07;10.77;;;8.20;99.90;;;;;;5089947;28;20952;-68
2023/09/24 01:40:37;;;;;;;10.60;10.40;;;8.20;99.90;;;;;;5077417;28;20486;-68
2023/09/24 01:43:07;;;;;;;11.10;10.80;;;8.20;99.90;;;;;;5085069;28;20451;-66
2023/09/24 01:45:34;;;;;;;11.40;11.10;;;8.20;99.90;;;;;;5079364;28;20919;-68
2023/09/24 01:48:02;;;;;;;11.07;10.77;;;8.20;99.90;;;;;;5083953;28;20523;-68
2023/09/24 01:50:29;;;;;;;11.60;11.30;;;8.20;99.90;;;;;;5085227;28;20479;-67
2023/09/24 01:52:58;;;;;;;11.30;11.00;;;8.10;99.90;;;;;;5078673;28;20517;-67
2023/09/24 01:55:25;;;;;;;10.87;10.60;;;8.10;99.90;;;;;;5085474;28;20485;-67
2023/09/24 01:57:55;;;;;;;10.30;10.10;;;8.10;99.90;;;;;;5089525;28;20502;-68
2023/09/24 02:00:25;;;;;;;11.13;10.83;;;8.00;99.90;;;;;;5078821;28;20461;-68
2023/09/24 02:02:54;;;;;;;10.57;10.37;;;8.00;99.90;;;;;;5081758;28;20466;-67
2023/09/24 02:05:23;;;;;;;11.53;11.23;;;8.00;99.90;;;;;;5079650;28;20462;-67
2023/09/24 02:07:50;;;;;;;12.10;11.80;;;8.00;99.90;;;;;;5089918;28;20454;-68
2023/09/24 02:10:18;;;;;;;12.27;11.97;;;8.10;99.90;;;;;;5089510;28;20597;-67
2023/09/24 02:12:46;;;;;;;12.13;11.83;;;8.20;99.90;;;;;;5084758;28;20550;-67
2023/09/24 02:15:18;;;;;;;12.30;12.00;;;8.20;99.90;;;;;;5088237;28;20466;-66
2023/09/24 02:17:48;;;;;;;11.57;11.27;;;8.30;99.90;;;;;;5085244;28;20486;-67
2023/09/24 02:20:25;;;;;;;10.80;10.60;;;8.30;99.90;;;;;;5081230;28;20462;-67
2023/09/24 02:22:56;;;;;;;10.73;10.53;;;8.20;99.90;;;;;;5088684;28;20449;-67
2023/09/24 02:25:24;;;;;;;10.63;10.43;;;8.20;99.90;;;;;;5089221;28;20458;-68
2023/09/24 02:27:51;;;;;;;11.33;11.03;;;8.10;99.90;;;;;;5089220;28;20474;-68
2023/09/24 02:30:21;;;;;;;10.77;10.57;;;8.00;99.90;;;;;;5070533;28;20999;-67
2023/09/24 02:32:48;;;;;;;10.80;10.60;;;8.00;99.90;;;;;;5087073;28;20466;-68
2023/09/24 02:35:16;;;;;;;11.10;10.80;;;8.00;99.90;;;;;;5088658;28;20493;-68
2023/09/24 02:37:45;;;;;;;10.57;10.37;;;8.10;99.90;;;;;;5088919;28;20457;-68
2023/09/24 02:40:18;;;;;;;11.40;11.10;;;8.10;99.90;;;;;;5074444;28;20557;-68
2023/09/24 02:42:46;;;;;;;10.67;10.47;;;8.10;99.90;;;;;;5084972;28;20453;-67
2023/09/24 02:45:15;;;;;;;11.20;10.90;;;8.20;99.90;;;;;;5088965;28;20450;-69
2023/09/24 02:47:45;;;;;;;11.20;10.90;;;8.20;99.90;;;;;;5083543;28;20467;-68
2023/09/24 02:50:13;;;;;;;10.73;10.53;;;8.30;99.90;;;;;;5079747;28;20847;-68
2023/09/24 02:52:41;;;;;;;11.27;10.97;;;8.30;99.90;;;;;;5081936;28;20875;-67
2023/09/24 02:55:12;;;;;;;10.33;10.13;;;8.40;99.90;;;;;;5081598;28;20828;-67
2023/09/24 02:57:39;;;;;;;11.20;10.90;;;8.40;99.90;;;;;;5084102;28;20549;-67
2023/09/24 03:00:15;;;;;;;10.87;10.67;;;8.30;99.90;;;;;;5088278;28;20471;-68
2023/09/24 03:02:43;;;;;;;11.30;11.00;;;8.30;99.90;;;;;;5088987;28;20472;-67
2023/09/24 03:05:12;;;;;;;10.90;10.70;;;8.30;99.90;;;;;;5088557;28;20454;-67
2023/09/24 03:07:40;;;;;;;10.97;10.73;;;8.30;99.90;;;;;;5075579;28;20490;-68
2023/09/24 03:10:09;;;;;;;11.20;10.90;;;8.40;99.90;;;;;;5073492;28;20586;-67
2023/09/24 03:12:36;;;;;;;11.10;10.80;;;8.40;99.90;;;;;;5085925;28;20458;-68
2023/09/24 03:15:06;;;;;;;11.13;10.83;;;8.30;99.90;;;;;;5086854;28;20960;-67
2023/09/24 03:17:34;;;;;;;11.50;11.20;;;8.20;99.90;;;;;;5092674;28;21020;-66
2023/09/24 03:20:14;;;;;;;11.87;11.57;;;8.10;99.90;;;;;;5082776;28;20500;-67
2023/09/24 03:22:43;;;;;;;12.23;11.93;;;8.10;99.90;;;;;;5090077;28;20978;-68
2023/09/24 03:25:11;;;;;;;11.93;11.63;;;8.10;99.90;;;;;;5082523;28;20462;-67
2023/09/24 03:27:40;;;;;;;12.07;11.77;;;8.00;99.90;;;;;;5090637;28;20591;-66
2023/09/24 03:30:10;;;;;;;12.20;11.90;;;8.10;99.90;;;;;;5083615;28;20498;-67
2023/09/24 03:32:38;;;;;;;11.90;11.60;;;8.10;99.90;;;;;;5077367;28;20542;-68
2023/09/24 03:35:09;;;;;;;12.20;11.90;;;8.00;99.90;;;;;;5089234;28;20481;-67
2023/09/24 03:37:40;;;;;;;12.30;12.00;;;8.00;99.90;;;;;;5087141;28;20556;-66
2023/09/24 03:40:10;;;;;;;11.97;11.67;;;8.00;99.90;;;;;;5077022;28;20513;-67
2023/09/24 03:42:37;;;;;;;11.53;11.23;;;8.00;99.90;;;;;;5083323;28;20841;-67
2023/09/24 03:45:06;;;;;;;11.30;11.00;;;7.90;99.90;;;;;;5091152;28;20489;-68
2023/09/24 03:47:34;;;;;;;11.40;11.10;;;7.80;99.90;;;;;;5086812;28;20552;-67
2023/09/24 03:50:03;;;;;;;11.70;11.40;;;7.70;99.90;;;;;;5092112;28;20496;-67
2023/09/24 03:52:32;;;;;;;11.50;11.20;;;7.70;99.90;;;;;;5075885;28;20461;-66
2023/09/24 03:55:00;;;;;;;12.20;11.90;;;7.60;99.90;;;;;;5086671;28;20454;-68
2023/09/24 03:57:28;;;;;;;11.80;11.50;;;7.60;99.90;;;;;;5089603;28;20457;-68
2023/09/24 03:59:55;;;;;;;11.83;11.53;;;7.60;99.90;;;;;;5084572;28;20852;-66
2023/09/24 04:02:22;;;;;;;11.97;11.67;;;7.60;99.90;;;;;;5088405;28;20497;-67
2023/09/24 04:04:49;;;;;;;11.40;11.10;;;7.60;99.90;;;;;;5085890;28;20481;-67
2023/09/24 04:07:17;;;;;;;10.80;10.60;;;7.70;99.90;;;;;;5078886;28;20470;-66
2023/09/24 04:09:45;;;;;;;10.47;10.27;;;7.80;99.90;;;;;;5075441;28;20482;-67
2023/09/24 04:12:13;;;;;;;11.50;11.20;;;7.90;99.90;;;;;;5089439;28;20890;-67
2023/09/24 04:14:41;;;;;;;11.10;10.80;;;7.90;99.90;;;;;;5082943;28;20553;-67
2023/09/24 04:17:09;;;;;;;11.90;11.60;;;8.00;99.90;;;;;;5075109;28;20472;-67
2023/09/24 04:19:36;;;;;;;12.20;11.90;;;8.00;99.90;;;;;;5083005;28;20485;-67
2023/09/24 04:22:03;;;;;;;11.60;11.30;;;7.90;99.90;;;;;;5089536;28;20464;-67
2023/09/24 04:24:30;;;;;;;11.60;11.30;;;7.80;99.90;;;;;;5082356;28;21028;-68
2023/09/24 04:27:00;;;;;;;11.90;11.60;;;7.70;99.90;;;;;;5087070;28;20460;-67
2023/09/24 04:29:27;;;;;;;12.33;12.03;;;7.60;99.90;;;;;;5075804;28;20496;-68
2023/09/24 04:31:54;;;;;;;12.10;11.80;;;7.50;99.90;;;;;;5087087;28;20461;-68
2023/09/24 04:34:22;;;;;;;12.07;11.77;;;7.60;99.90;;;;;;5091847;28;20473;-67
2023/09/24 04:36:50;;;;;;;11.47;11.17;;;7.60;99.90;;;;;;5080466;28;20486;-68
2023/09/24 04:39:19;;;;;;;10.90;10.70;;;7.70;99.90;;;;;;5081355;28;20480;-68
2023/09/24 04:41:47;;;;;;;11.10;10.83;;;7.70;99.90;;;;;;5082532;28;20559;-68
2023/09/24 04:44:16;;;;;;;11.50;11.20;;;7.60;99.90;;;;;;5086198;28;20465;-67
2023/09/24 04:46:42;;;;;;;11.60;11.30;;;7.70;99.90;;;;;;5081622;28;20447;-66
2023/09/24 04:49:10;;;;;;;11.90;11.60;;;7.80;99.90;;;;;;5090708;28;20488;-68
2023/09/24 04:51:37;;;;;;;11.70;11.40;;;7.90;99.90;;;;;;5084763;28;20546;-66
2023/09/24 04:54:05;;;;;;;12.20;11.90;;;7.90;99.90;;;;;;5084098;28;20489;-68
2023/09/24 04:56:33;;;;;;;12.80;12.40;;;7.90;99.90;;;;;;5080570;28;20470;-68
2023/09/24 04:59:01;;;;;;;12.37;12.07;;;7.90;99.90;;;;;;5086738;28;20864;-66
2023/09/24 05:01:29;;;;;;;12.53;12.17;;;7.80;99.90;;;;;;5084068;28;20460;-67
2023/09/24 05:03:56;;;;;;;12.00;11.70;;;7.80;99.90;;;;;;5078779;28;20822;-67
2023/09/24 05:06:24;;;;;;;12.50;12.17;;;7.80;99.90;;;;;;5079431;28;20462;-67
2023/09/24 05:08:52;;;;;;;11.97;11.67;;;7.80;99.90;;;;;;5075404;28;20458;-67
2023/09/24 05:11:19;;;;;;;11.37;11.07;;;7.90;99.90;;;;;;5084858;28;20777;-68
2023/09/24 05:13:47;;;;;;;11.80;11.50;;;7.80;99.90;;;;;;5087364;28;20793;-67
2023/09/24 05:16:15;;;;;;;12.10;11.80;;;7.80;99.90;;;;;;5085587;28;20467;-67
2023/09/24 05:18:45;;;;;;;12.40;12.10;;;7.60;99.90;;;;;;5081024;28;20465;-67
2023/09/24 05:21:17;;;;;;;12.70;12.30;;;7.60;99.90;;;;;;5075427;28;20475;-66
2023/09/24 05:23:45;;;;;;;12.10;11.80;;;7.60;99.90;;;;;;5084658;28;20458;-68
2023/09/24 05:26:13;;;;;;;12.37;12.07;;;7.50;99.90;;;;;;5089401;28;20464;-68
2023/09/24 05:28:40;;;;;;;12.23;11.93;;;7.50;99.90;;;;;;5089513;28;20478;-67
2023/09/24 05:31:08;;;;;;;12.27;11.97;;;7.50;99.90;;;;;;5079459;28;21377;-67
2023/09/24 05:33:36;;;;;;;12.50;12.20;;;7.50;99.90;;;;;;5074707;28;20451;-68
2023/09/24 05:36:07;;;;;;;12.37;12.07;;;7.50;99.90;;;;;;5083527;28;20542;-67
2023/09/24 05:38:35;;;;;;;12.20;11.90;;;7.50;99.90;;;;;;5080325;28;20485;-66
2023/09/24 05:41:05;;;;;;;12.20;11.90;;;7.50;99.90;;;;;;5073992;28;20451;-68
2023/09/24 05:43:33;;;;;;;11.80;11.50;;;7.50;99.90;;;;;;5084446;28;21017;-67
2023/09/24 05:46:01;;;;;;;12.17;11.87;;;7.60;99.90;;;;;;5072980;28;20567;-67
2023/09/24 05:48:28;;;;;;;12.50;12.20;;;7.70;99.90;;;;;;5083965;28;20489;-68
2023/09/24 05:50:54;;;;;;;12.20;11.90;;;7.80;99.90;;;;;;5084142;28;20514;-68
2023/09/24 05:53:22;;;;;;;11.00;10.80;;;8.00;99.90;;;;;;5081237;28;20462;-67
2023/09/24 05:55:54;;;;;;;10.90;10.70;;;8.10;99.90;;;;;;5072641;28;20454;-67
2023/09/24 05:58:21;;;;;;;9.70;9.50;;;8.20;99.90;;;;;;5085410;28;21013;-68
2023/09/24 06:00:50;;;;;;;10.03;9.83;;;8.30;99.90;;;;;;5077543;28;20522;-67
2023/09/24 06:03:17;;;;;;;9.30;9.10;;;8.40;99.90;;;;;;5078928;28;20454;-67
2023/09/24 06:05:43;;;;;;;10.60;10.40;;;8.50;99.90;;;;;;5077850;28;20470;-68
2023/09/24 06:08:10;;;;;;;10.17;9.97;;;8.50;99.90;;;;;;5079391;28;20504;-67
2023/09/24 06:10:46;;;;;;;10.20;10.00;;;8.50;99.90;;;;;;5068957;28;20974;-67
2023/09/24 06:13:15;;;;;;;10.50;10.30;;;8.60;99.90;;;;;;5071066;28;20485;-68
2023/09/24 06:15:42;;;;;;;10.30;10.10;;;8.60;99.90;;;;;;5077197;28;20549;-69
2023/09/24 06:18:10;;;;;;;9.90;9.70;;;8.70;99.90;;;;;;5075581;28;20529;-67
2023/09/24 06:20:40;;;;;;;10.00;9.80;;;8.80;99.90;;;;;;5078993;28;20485;-67
2023/09/24 06:23:07;;;;;;;10.40;10.20;;;9.00;99.90;;;;;;5072723;28;20985;-68
2023/09/24 06:25:34;;;;;;;9.77;9.57;;;9.20;99.90;;;;;;5076666;28;20475;-67
2023/09/24 06:28:04;;;;;;;9.30;9.10;;;9.30;99.90;;;;;;5085969;28;20485;-68
2023/09/24 06:30:31;;;;;;;8.73;8.63;;;9.50;99.90;;;;;;5075008;28;20558;-68
2023/09/24 06:32:58;;;;;;;9.40;9.20;;;9.60;99.90;;;;;;5072563;28;20485;-67
2023/09/24 06:35:25;;;;;;;8.43;8.33;;;9.80;99.90;;;;;;5081224;28;20890;-68
2023/09/24 06:37:52;;;;;;;8.80;8.70;;;9.90;99.90;;;;;;5074437;28;20947;-67
2023/09/24 06:40:19;;;;;;;9.17;8.97;;;10.00;99.90;;;;;;5069350;28;20587;-66
2023/09/24 06:42:47;;;;;;;8.70;8.60;;;10.10;99.90;;;;;;5082839;28;20793;-66
2023/09/24 06:45:16;;;;;;;8.63;8.53;;;10.20;99.90;;;;;;5083556;28;20557;-67
2023/09/24 06:47:43;;;;;;;8.73;8.63;;;10.20;99.90;;;;;;5076909;28;20466;-67
2023/09/24 06:50:10;;;;;;;9.50;9.30;;;10.30;99.90;;;;;;5074734;28;20455;-67
2023/09/24 06:52:37;;;;;;;9.07;8.87;;;10.40;99.90;;;;;;5080858;28;20489;-68
2023/09/24 06:55:05;;;;;;;8.57;8.47;;;10.50;99.90;;;;;;5065624;28;20459;-68
2023/09/24 06:57:33;;;;;;;9.07;8.87;;;10.50;99.90;;;;;;5078985;28;20454;-67
2023/09/24 07:00:00;;;;;;;8.60;8.50;;;10.60;99.90;;;;;;5078377;28;20549;-68
2023/09/24 07:02:28;;;;;;;8.83;8.67;;;10.80;99.90;;;;;;5088272;28;20454;-68
2023/09/24 07:04:57;;;;;;;8.73;8.63;;;10.80;99.90;;;;;;5082157;28;20454;-68
2023/09/24 07:07:26;;;;;;;9.40;9.20;;;10.90;99.90;;;;;;5082763;28;20465;-68
2023/09/24 07:09:53;;;;;;;9.83;9.63;;;11.00;99.90;;;;;;5069907;28;20498;-68
2023/09/24 07:12:20;;;;;;;10.17;9.97;;;11.10;99.90;;;;;;5078370;28;20505;-67
2023/09/24 07:14:47;;;;;;;10.47;10.27;;;11.20;99.90;;;;;;5087769;28;20527;-67
2023/09/24 07:17:16;;;;;;;11.13;10.83;;;11.30;99.90;;;;;;5075209;28;20458;-68
2023/09/24 07:19:45;;;;;;;11.13;10.83;;;11.50;99.90;;;;;;5085238;28;20459;-67
2023/09/24 07:22:12;;;;;;;10.73;10.50;;;11.50;99.90;;;;;;5087075;28;20487;-66
2023/09/24 07:24:39;;;;;;;11.40;11.10;;;11.60;99.90;;;;;;5086765;28;20495;-68
2023/09/24 07:27:06;;;;;;;11.40;11.10;;;11.80;99.90;;;;;;5065599;28;21037;-67
2023/09/24 07:29:33;;;;;;;11.50;11.20;;;11.80;99.90;;;;;;5079428;28;20675;-67
2023/09/24 07:32:00;;;;;;;11.20;10.90;;;11.80;99.90;;;;;;5087325;28;20501;-67
2023/09/24 07:34:28;;;;;;;10.90;10.60;;;11.90;99.90;;;;;;5083122;28;20482;-67
2023/09/24 07:36:58;;;;;;;12.00;11.70;;;12.00;99.90;;;;;;5077529;28;20456;-68
2023/09/24 07:39:24;;;;;;;11.83;11.53;;;12.10;99.90;;;;;;5069005;28;20807;-68
2023/09/24 07:41:51;;;;;;;11.13;10.83;;;12.10;99.90;;;;;;5079733;28;20458;-68
2023/09/24 07:44:18;;;;;;;11.77;11.47;;;12.20;99.90;;;;;;5075437;28;20997;-67
2023/09/24 07:46:45;;;;;;;12.40;12.00;;;12.20;99.90;;;;;;5071077;28;20474;-67
2023/09/24 07:49:13;;;;;;;12.00;11.70;;;12.30;99.90;;;;;;5079377;28;20515;-66
2023/09/24 07:51:39;;;;;;;12.10;11.80;;;12.30;99.90;;;;;;5074834;28;20489;-68
2023/09/24 07:54:08;;;;;;;11.70;11.40;;;12.40;99.90;;;;;;5080040;28;20804;-68
2023/09/24 07:56:38;;;;;;;12.60;12.20;;;12.40;99.90;;;;;;5076150;28;20458;-67
2023/09/24 07:59:05;;;;;;;11.67;11.37;;;12.60;99.90;;;;;;5076087;28;20519;-67
2023/09/24 08:01:33;;;;;;;11.67;11.37;;;12.60;99.90;;;;;;5081443;28;20467;-66
2023/09/24 08:04:00;;;;;;;11.73;11.43;;;12.70;99.90;;;;;;5076964;28;20465;-67
2023/09/24 08:06:28;;;;;;;11.73;11.43;;;12.80;99.90;;;;;;5085051;28;20576;-67
2023/09/24 08:08:56;;;;;;;12.60;12.20;;;12.90;99.90;;;;;;5078397;28;20462;-66
2023/09/24 08:11:25;;;;;;;12.80;12.40;;;13.00;99.90;;;;;;5087105;28;21003;-66
2023/09/24 08:13:54;;;;;;;11.80;11.50;;;13.10;99.90;;;;;;5082927;28;20460;-66
2023/09/24 08:16:21;;;;;;;12.60;12.20;;;13.10;99.90;;;;;;5086593;28;20462;-66
2023/09/24 08:18:48;;;;;;;13.10;12.70;;;13.20;99.90;;;;;;5081316;28;20478;-67
2023/09/24 08:21:15;;;;;;;13.20;12.80;;;13.30;99.90;;;;;;5082212;28;20471;-68
2023/09/24 08:23:43;;;;;;;13.70;13.20;;;13.40;99.90;;;;;;5082361;28;20493;-68
2023/09/24 08:26:10;;;;;;;13.30;12.90;;;13.50;99.90;;;;;;5080540;28;20519;-66
2023/09/24 08:28:39;;;;;;;13.73;13.23;;;13.40;99.90;;;;;;5083018;28;21005;-67
2023/09/24 08:31:10;;;;;;;13.13;12.73;;;13.50;99.90;;;;;;5055275;28;20513;-66
2023/09/24 08:33:37;;;;;;;13.00;12.60;;;13.60;99.90;;;;;;5064623;28;20532;-68
2023/09/24 08:36:09;;;;;;;12.50;12.10;;;13.80;99.90;;;;;;5064245;28;20479;-67
2023/09/24 08:38:36;;;;;;;12.73;12.33;;;13.80;99.90;;;;;;5060413;28;20503;-68
2023/09/24 08:41:11;;;;;;;12.80;12.40;;;13.80;99.90;;;;;;5065906;28;20973;-67
2023/09/24 08:43:42;;;;;;;12.57;12.17;;;13.90;99.90;;;;;;5062217;28;20910;-68
2023/09/24 08:46:10;;;;;;;13.07;12.67;;;13.90;99.90;;;;;;5070791;28;20538;-67
2023/09/24 08:48:39;;;;;;;13.07;12.67;;;14.10;99.90;;;;;;5064095;28;21211;-67
2023/09/24 08:51:08;;;;;;;12.93;12.53;;;14.20;99.90;;;;;;5068060;28;20482;-68
2023/09/24 08:53:37;;;;;;;13.03;12.63;;;14.30;99.90;;;;;;5066759;28;20483;-68
2023/09/24 08:56:05;;;;;;;12.87;12.47;;;14.50;99.90;;;;;;5055782;28;20480;-68
2023/09/24 08:58:31;;;;;;;12.63;12.23;;;14.60;99.90;;;;;;5054660;28;20490;-68
2023/09/24 09:01:02;;;;;;;12.40;12.00;;;14.80;99.90;;;;;;5052672;28;20466;-68
2023/09/24 09:03:29;;;;;;;12.50;12.10;;;14.90;99.90;;;;;;5068839;28;20493;-69
2023/09/24 09:05:57;;;;;;;12.47;12.07;;;14.90;99.90;;;;;;5060984;28;20968;-67
2023/09/24 09:08:24;;;;;;;12.00;11.70;;;15.00;99.90;;;;;;5051655;28;20489;-69
2023/09/24 09:10:51;;;;;;;12.33;12.03;;;15.00;99.90;;;;;;5053301;28;20451;-67
2023/09/24 09:13:19;;;;;;;12.33;12.03;;;15.10;99.90;;;;;;5058990;28;20460;-68
2023/09/24 09:15:47;;;;;;;12.33;12.03;;;15.20;99.90;;;;;;5064092;28;20462;-69
2023/09/24 09:18:24;;;;;;;12.60;12.20;;;15.40;99.90;;;;;;5059119;28;20506;-68
2023/09/24 09:20:58;;;;;;;11.70;11.40;;;15.50;99.90;;;;;;5059990;28;20464;-67
2023/09/24 09:23:36;;;;;;;12.67;12.27;;;15.70;99.90;;;;;;5060742;28;20473;-68
2023/09/24 09:26:03;;;;;;;11.57;11.27;;;15.90;99.90;;;;;;5056250;28;20471;-68
2023/09/24 09:28:34;;;;;;;12.17;11.87;;;16.00;99.90;;;;;;5063237;28;20473;-68
2023/09/24 09:31:03;;;;;;;12.90;12.50;;;16.20;99.90;;;;;;5076227;28;20459;-68
2023/09/24 09:33:34;;;;;;;12.60;12.30;;;16.70;99.90;;;;;;5073197;28;22399;-69
2023/09/24 09:36:02;;;;;;;11.37;11.07;;;17.50;99.90;;;;;;5076141;28;21060;-68
2023/09/24 09:38:30;;;;;;;11.03;10.73;;;18.30;99.90;;;;;;5078678;28;20467;-67
2023/09/24 09:40:58;;;;;;;10.80;10.60;;;19.10;99.90;;;;;;5080613;28;20470;-70
2023/09/24 09:43:26;;;;;;;11.73;11.43;;;19.80;99.90;;;;;;5081580;28;20949;-68
2023/09/24 09:45:55;;;;;;;11.37;11.07;;;20.20;99.90;;;;;;5073361;28;20459;-69
2023/09/24 09:48:32;;;;;;;12.10;11.80;;;21.00;99.90;;;;;;5057630;28;20922;-70
2023/09/24 09:51:02;;;;;;;12.00;11.70;;;21.20;99.90;;;;;;5076523;28;20468;-67
2023/09/24 09:53:34;;;;;;;12.40;12.10;;;21.20;99.90;;;;;;5080356;28;20451;-68
2023/09/24 09:56:04;;;;;;;12.10;11.80;;;21.40;99.90;;;;;;5078019;28;20979;-68
2023/09/24 09:58:32;;;;;;;12.70;12.30;;;21.40;99.90;;;;;;5062539;28;20466;-69
2023/09/24 10:01:00;;;;;;;13.00;12.60;;;21.80;99.90;;;;;;5066743;28;20446;-69
2023/09/24 10:03:30;;;;;;;12.73;12.33;;;22.00;99.90;;;;;;5083666;28;20478;-70
2023/09/24 10:06:00;;;;;;;12.77;12.37;;;22.80;99.90;;;;;;5081338;28;20458;-68
2023/09/24 10:08:43;;;;;;;12.73;12.33;;;22.70;99.90;;;;;;5080790;28;20961;-68
2023/09/24 10:11:12;;;;;;;12.90;12.50;;;22.50;99.90;;;;;;5080235;28;20461;-67
2023/09/24 10:13:44;;;;;;;12.80;12.40;;;22.40;99.90;;;;;;5076039;28;20458;-70
2023/09/24 10:16:31;;;;;;;12.90;12.50;;;22.00;99.90;;;;;;5078766;28;20843;-68
2023/09/24 10:18:59;;;;;;;13.50;13.10;;;22.00;99.90;;;;;;5073094;28;20459;-70
2023/09/24 10:21:33;;;;;;;12.60;12.20;;;22.00;99.90;;;;;;5073020;28;20969;-70
2023/09/24 10:24:01;;;;;;;13.50;13.10;;;22.50;99.90;;;;;;5077330;28;21036;-70
2023/09/24 10:26:47;;;;;;;14.00;13.60;;;22.90;99.90;;;;;;5074061;28;20463;-69
2023/09/24 10:29:14;;;;;;;13.60;13.20;;;23.70;99.90;;;;;;5069490;28;20471;-69
2023/09/24 10:32:13;;;;;;;13.30;12.90;;;24.00;99.90;;;;;;5082719;28;20478;-68
2023/09/24 10:35:11;;;;;;;13.43;13.03;;;24.40;99.90;;;;;;5077386;28;20481;-69
2023/09/24 10:38:00;;;;;;;13.53;13.13;;;24.30;99.90;;;;;;5077750;28;20462;-71
2023/09/24 10:40:28;;;;;;;13.33;12.93;;;24.30;99.90;;;;;;5069638;28;20478;-68
2023/09/24 10:43:17;;;;;;;13.70;13.30;;;24.10;99.90;;;;;;5080231;28;20450;-69
2023/09/24 10:45:43;;;;;;;14.00;13.60;;;24.30;99.90;;;;;;5079666;28;20541;-71
2023/09/24 10:48:11;;;;;;;14.43;13.93;;;24.70;99.90;;;;;;5071525;28;20468;-69
2023/09/24 10:50:43;;;;;;;13.93;13.53;;;24.60;99.90;;;;;;5083610;28;20533;-69
2023/09/24 10:53:11;;;;;;;13.50;13.10;;;25.40;99.90;;;;;;5071518;28;20488;-70
2023/09/24 10:55:41;;;;;;;13.60;13.20;;;25.80;99.90;;;;;;5079427;28;20458;-69
2023/09/24 10:58:13;;;;;;;13.40;13.00;;;25.50;99.90;;;;;;5073487;28;20487;-69
2023/09/24 11:00:42;;;;;;;13.00;12.60;;;25.20;99.90;;;;;;5090399;28;20462;-69
2023/09/24 11:03:11;;;;;;;13.10;12.70;;;25.40;99.90;;;;;;5074122;28;20466;-69
2023/09/24 11:05:47;;;;;;;13.73;13.33;;;25.20;99.90;;;;;;5077555;28;20451;-69
2023/09/24 11:08:17;;;;;;;14.17;13.67;;;24.90;99.90;;;;;;5076895;28;20462;-70
2023/09/24 11:10:49;;;;;;;13.70;13.30;;;25.30;99.90;;;;;;5076694;28;20456;-69
2023/09/24 11:13:16;;;;;;;14.13;13.63;;;25.10;99.90;;;;;;5087598;28;20581;-70
2023/09/24 11:15:43;;;;;;;13.67;13.27;;;25.60;99.90;;;;;;5074236;28;20458;-68
2023/09/24 11:18:12;;;;;;;13.67;13.27;;;25.10;99.90;;;;;;5079777;28;20494;-67
2023/09/24 11:20:47;;;;;;;13.60;13.20;;;25.20;99.90;;;;;;5062921;28;20657;-69
2023/09/24 11:23:15;;;;;;;14.30;13.80;;;25.60;99.90;;;;;;5066352;28;20454;-68
2023/09/24 11:25:47;;;;;;;13.60;13.20;;;25.50;99.90;;;;;;5061800;28;20470;-69
2023/09/24 11:28:14;;;;;;;14.33;13.83;;;25.70;99.90;;;;;;5072310;28;20469;-68
2023/09/24 11:30:43;;;;;;;14.27;13.77;;;26.40;99.90;;;;;;5074225;28;20994;-70
2023/09/24 11:33:16;;;;;;;14.10;13.60;;;26.60;99.90;;;;;;5073458;28;20950;-70
2023/09/24 11:35:45;;;;;;;14.13;13.63;;;27.00;99.90;;;;;;5069895;28;20518;-70
2023/09/24 11:38:13;;;;;;;14.50;14.00;;;27.50;99.90;;;;;;5070235;28;21137;-71
2023/09/24 11:40:42;;;;;;;14.47;13.97;;;27.20;99.90;;;;;;5072100;28;20987;-71
2023/09/24 11:43:13;;;;;;;14.37;13.87;;;27.20;99.90;;;;;;5076510;28;20465;-71
2023/09/24 11:45:48;;;;;;;14.23;13.73;;;27.50;99.90;;;;;;5076599;28;20520;-69
2023/09/24 11:48:17;;;;;;;14.70;14.20;;;27.70;99.90;;;;;;5073947;28;20466;-71
2023/09/24 11:50:47;;;;;;;14.63;14.13;;;27.30;99.90;;;;;;5073378;28;20991;-71
2023/09/24 11:53:15;;;;;;;14.13;13.63;;;27.20;99.90;;;;;;5079878;28;20477;-70
2023/09/24 11:55:44;;;;;;;14.50;14.00;;;27.30;99.90;;;;;;5089630;28;20465;-70
2023/09/24 11:58:12;;;;;;;14.70;14.20;;;27.60;99.10;;;;;;5088527;28;20499;-70
2023/09/24 12:00:39;;;;;;;14.73;14.23;;;27.70;98.40;;;;;;5070651;28;20549;-69
2023/09/24 12:03:07;;;;;;;14.03;13.53;;;27.50;99.90;;;;;;5073355;28;21259;-69
2023/09/24 12:05:34;;;;;;;13.73;13.33;;;27.40;99.70;;;;;;5080739;28;20523;-69
2023/09/24 12:08:01;;;;;;;14.57;14.07;;;27.60;99.90;;;;;;5082698;28;20461;-71
2023/09/24 12:10:29;;;;;;;13.73;13.30;;;27.90;99.50;;;;;;5087173;28;20457;-68
2023/09/24 12:13:01;;;;;;;14.80;14.30;;;28.00;98.90;;;;;;5084469;28;20503;-70
2023/09/24 12:15:30;;;;;;;14.67;14.17;;;28.20;99.50;;;;;;5075057;28;20477;-71
2023/09/24 12:17:58;;;;;;;14.53;14.03;;;28.60;99.00;;;;;;5077610;28;20957;-69
2023/09/24 12:20:25;;;;;;;13.80;13.40;;;28.60;98.70;;;;;;5088009;28;20507;-70
2023/09/24 12:22:52;;;;;;;13.93;13.50;;;28.40;97.20;;;;;;5088506;28;20465;-69
2023/09/24 12:25:19;;;;;;;13.57;13.17;;;28.80;97.70;;;;;;5080186;28;20470;-68
2023/09/24 12:27:47;;;;;;;13.90;13.50;;;29.00;95.90;;;;;;5073628;28;20538;-68
2023/09/24 12:30:15;;;;;;;14.60;14.10;;;29.10;95.50;;;;;;5086226;28;20474;-69
2023/09/24 12:32:43;;;;;;;14.57;14.07;;;28.70;94.60;;;;;;5081772;28;20486;-69
2023/09/24 12:35:11;;;;;;;14.60;14.10;;;28.40;94.10;;;;;;5088866;28;20492;-69
2023/09/24 12:37:40;;;;;;;14.40;14.00;;;28.90;95.50;;;;;;5088565;28;20481;-69
2023/09/24 12:40:10;;;;;;;15.03;14.53;;;29.30;93.80;;;;;;5081166;28;20469;-67
2023/09/24 12:42:38;;;;;;;13.83;13.43;;;29.00;92.70;;;;;;5086739;28;20461;-69